createdAt,value
2023-04-17T00:00:37.374Z,53.84
2023-04-17T00:03:06.100Z,53.86
2023-04-17T00:05:34.642Z,53.83
2023-04-17T00:08:03.403Z,53.70
2023-04-17T00:10:33.230Z,53.62
2023-04-17T00:13:01.606Z,53.62
2023-04-17T00:15:30.347Z,53.58
2023-04-17T00:17:58.867Z,53.51
2023-04-17T00:20:27.215Z,53.30
2023-04-17T00:22:55.558Z,53.32
2023-04-17T00:25:24.316Z,53.38
2023-04-17T00:27:54.194Z,53.39
2023-04-17T00:30:23.193Z,53.50
2023-04-17T00:32:51.538Z,53.47
2023-04-17T00:35:20.103Z,53.43
2023-04-17T00:37:49.770Z,53.45
2023-04-17T00:40:18.508Z,53.34
2023-04-17T00:42:52.952Z,53.45
2023-04-17T00:45:23.468Z,53.37
2023-04-17T00:47:53.022Z,53.42
2023-04-17T00:50:21.780Z,53.26
2023-04-17T00:52:51.005Z,53.08
2023-04-17T00:55:20.076Z,53.27
2023-04-17T00:57:49.712Z,53.12
2023-04-17T01:00:18.881Z,52.91
2023-04-17T01:02:48.781Z,53.00
2023-04-17T01:05:17.629Z,53.00
2023-04-17T01:07:47.548Z,53.02
2023-04-17T01:10:16.041Z,53.11
2023-04-17T01:12:46.899Z,53.04
2023-04-17T01:15:15.720Z,53.00
2023-04-17T01:17:44.137Z,52.98
2023-04-17T01:20:14.788Z,52.95
2023-04-17T01:22:43.115Z,52.92
2023-04-17T01:25:13.034Z,52.82
2023-04-17T01:27:42.429Z,52.90
2023-04-17T01:30:12.392Z,52.74
2023-04-17T01:32:41.503Z,52.71
2023-04-17T01:35:11.347Z,52.66
2023-04-17T01:37:39.738Z,52.67
2023-04-17T01:40:10.154Z,52.50
2023-04-17T01:42:39.960Z,52.46
2023-04-17T01:45:09.973Z,52.46
2023-04-17T01:47:38.425Z,52.56
2023-04-17T01:50:09.944Z,52.56
2023-04-17T01:52:39.917Z,52.58
2023-04-17T01:55:09.151Z,52.66
2023-04-17T01:57:37.540Z,52.93
2023-04-17T02:00:11.235Z,52.77
2023-04-17T02:02:39.750Z,52.71
2023-04-17T02:05:09.241Z,52.88
2023-04-17T02:07:38.026Z,52.96
2023-04-17T02:10:07.801Z,52.91
2023-04-17T02:12:36.181Z,52.81
2023-04-17T02:15:06.566Z,52.52
2023-04-17T02:17:34.958Z,52.55
2023-04-17T02:20:07.328Z,52.49
2023-04-17T02:22:35.719Z,52.51
2023-04-17T02:25:04.189Z,52.45
2023-04-17T02:27:32.564Z,52.32
2023-04-17T02:30:02.388Z,52.17
2023-04-17T02:32:32.185Z,52.15
2023-04-17T02:35:00.627Z,52.20
2023-04-17T02:37:29.035Z,52.15
2023-04-17T02:39:58.063Z,52.12
2023-04-17T02:42:26.441Z,52.16
2023-04-17T02:44:54.975Z,52.14
2023-04-17T02:47:23.572Z,52.17
2023-04-17T02:49:55.037Z,52.19
2023-04-17T02:52:23.499Z,52.17
2023-04-17T02:54:52.062Z,51.91
2023-04-17T02:57:20.527Z,52.17
2023-04-17T02:59:49.139Z,52.26
2023-04-17T03:02:21.979Z,52.16
2023-04-17T03:04:52.861Z,52.18
2023-04-17T03:07:23.794Z,52.05
2023-04-17T03:09:54.072Z,52.20
2023-04-17T03:12:22.439Z,52.17
2023-04-17T03:14:51.186Z,52.23
2023-04-17T03:17:21.003Z,52.20
2023-04-17T03:19:49.436Z,52.17
2023-04-17T03:22:19.194Z,52.28
2023-04-17T03:24:47.592Z,52.27
2023-04-17T03:27:15.949Z,52.23
2023-04-17T03:29:44.384Z,52.23
2023-04-17T03:32:12.856Z,52.25
2023-04-17T03:34:41.327Z,52.23
2023-04-17T03:37:09.690Z,52.14
2023-04-17T03:39:39.408Z,52.21
2023-04-17T03:42:08.098Z,52.20
2023-04-17T03:44:36.726Z,52.16
2023-04-17T03:47:05.218Z,52.25
2023-04-17T03:49:33.628Z,52.13
2023-04-17T03:52:03.780Z,52.25
2023-04-17T03:54:35.622Z,52.21
2023-04-17T03:57:06.149Z,52.20
2023-04-17T03:59:34.562Z,52.40
2023-04-17T04:02:03.272Z,52.31
2023-04-17T04:04:31.824Z,52.34
2023-04-17T04:07:01.590Z,52.46
2023-04-17T04:09:29.932Z,52.20
2023-04-17T04:11:58.507Z,52.29
2023-04-17T04:14:28.253Z,52.27
2023-04-17T04:16:56.555Z,52.16
2023-04-17T04:19:24.954Z,52.30
2023-04-17T04:21:54.389Z,52.32
2023-04-17T04:24:23.753Z,52.22
2023-04-17T04:26:52.321Z,52.24
2023-04-17T04:29:25.721Z,52.17
2023-04-17T04:31:55.672Z,52.36
2023-04-17T04:34:25.866Z,52.37
2023-04-17T04:36:54.323Z,52.33
2023-04-17T04:39:22.671Z,52.41
2023-04-17T04:41:52.024Z,52.47
2023-04-17T04:44:21.157Z,52.36
2023-04-17T04:46:49.531Z,52.38
2023-04-17T04:49:19.555Z,52.38
2023-04-17T04:51:48.010Z,52.26
2023-04-17T04:54:16.416Z,52.18
2023-04-17T04:56:46.055Z,52.01
2023-04-17T04:59:14.393Z,52.07
2023-04-17T05:01:44.745Z,52.07
2023-04-17T05:04:13.325Z,51.85
2023-04-17T05:06:43.082Z,51.89
2023-04-17T05:09:11.738Z,51.75
2023-04-17T05:11:40.518Z,51.52
2023-04-17T05:14:09.043Z,51.51
2023-04-17T05:16:37.480Z,51.22
2023-04-17T05:19:06.029Z,51.15
2023-04-17T05:21:34.491Z,51.00
2023-04-17T05:24:04.469Z,50.93
2023-04-17T05:26:32.797Z,50.68
2023-04-17T05:29:01.552Z,50.72
2023-04-17T05:31:30.011Z,50.69
2023-04-17T05:33:58.408Z,50.56
2023-04-17T05:36:27.130Z,50.43
2023-04-17T05:38:56.949Z,50.43
2023-04-17T05:41:27.981Z,50.25
2023-04-17T05:43:56.370Z,50.25
2023-04-17T05:46:24.751Z,50.07
2023-04-17T05:48:53.224Z,50.11
2023-04-17T05:51:21.819Z,49.77
2023-04-17T05:53:50.159Z,49.51
2023-04-17T05:56:18.519Z,49.39
2023-04-17T05:58:48.269Z,49.64
2023-04-17T06:01:17.777Z,49.32
2023-04-17T06:03:46.649Z,48.95
2023-04-17T06:06:15.199Z,48.88
2023-04-17T06:08:43.550Z,48.69
2023-04-17T06:11:11.983Z,48.85
2023-04-17T06:13:40.461Z,48.86
2023-04-17T06:16:10.650Z,48.59
2023-04-17T06:18:39.011Z,48.58
2023-04-17T06:21:08.819Z,48.36
2023-04-17T06:23:37.244Z,48.38
2023-04-17T06:26:05.769Z,47.50
2023-04-17T06:28:34.636Z,47.38
2023-04-17T06:31:03.404Z,47.31
2023-04-17T06:33:33.261Z,46.95
2023-04-17T06:36:01.614Z,46.73
2023-04-17T06:38:30.043Z,46.24
2023-04-17T06:40:58.537Z,46.16
2023-04-17T06:43:28.419Z,45.94
2023-04-17T06:45:56.901Z,46.15
2023-04-17T06:48:25.493Z,45.95
2023-04-17T06:50:55.271Z,45.93
2023-04-17T06:53:23.643Z,46.07
2023-04-17T06:55:52.214Z,46.10
2023-04-17T06:58:20.534Z,46.06
2023-04-17T07:00:49.119Z,46.15
2023-04-17T07:03:17.639Z,46.30
2023-04-17T07:05:46.621Z,45.57
2023-04-17T07:08:18.498Z,45.42
2023-04-17T07:10:46.809Z,45.43
2023-04-17T07:13:15.129Z,45.57
2023-04-17T07:15:43.690Z,45.05
2023-04-17T07:18:12.176Z,45.11
2023-04-17T07:20:40.481Z,45.20
2023-04-17T07:23:08.860Z,44.80
2023-04-17T07:25:38.698Z,44.89
2023-04-17T07:28:07.750Z,44.54
2023-04-17T07:30:36.196Z,44.49
2023-04-17T07:33:04.738Z,44.43
2023-04-17T07:35:33.186Z,44.49
2023-04-17T07:38:03.803Z,44.01
2023-04-17T07:40:33.498Z,43.70
2023-04-17T07:43:03.317Z,43.40
2023-04-17T07:45:33.514Z,43.06
2023-04-17T07:48:01.901Z,42.87
2023-04-17T07:50:30.561Z,43.23
2023-04-17T07:52:59.552Z,43.25
2023-04-17T07:55:27.885Z,43.04
2023-04-17T07:57:56.633Z,42.93
2023-04-17T08:00:26.396Z,42.23
2023-04-17T08:02:54.984Z,42.41
2023-04-17T08:05:24.227Z,42.13
2023-04-17T08:07:52.784Z,41.80
2023-04-17T08:10:21.363Z,41.91
2023-04-17T08:12:49.742Z,41.77
2023-04-17T08:15:18.317Z,41.48
2023-04-17T08:17:48.258Z,41.32
2023-04-17T08:20:18.271Z,41.06
2023-04-17T08:22:47.745Z,41.05
2023-04-17T08:25:16.364Z,40.81
2023-04-17T08:27:45.191Z,40.96
2023-04-17T08:30:18.823Z,40.45
2023-04-17T08:32:50.840Z,40.59
2023-04-17T08:35:20.888Z,40.21
2023-04-17T08:37:49.403Z,40.12
2023-04-17T08:40:18.875Z,39.93
2023-04-17T08:42:48.304Z,40.14
2023-04-17T08:45:17.628Z,40.04
2023-04-17T08:47:46.120Z,39.56
2023-04-17T08:50:18.044Z,39.62
2023-04-17T08:52:49.580Z,39.58
2023-04-17T08:55:20.712Z,39.57
2023-04-17T08:58:00.982Z,39.18
2023-04-17T09:00:31.230Z,39.02
2023-04-17T09:03:02.738Z,38.98
2023-04-17T09:05:34.233Z,38.74
2023-04-17T09:08:12.351Z,38.76
2023-04-17T09:10:43.007Z,38.75
2023-04-17T09:13:14.599Z,38.36
2023-04-17T09:15:44.612Z,38.76
2023-04-17T09:18:26.794Z,38.64
2023-04-17T09:20:57.709Z,38.66
2023-04-17T09:23:27.163Z,38.75
2023-04-17T09:26:09.481Z,38.80
2023-04-17T09:28:40.045Z,37.82
2023-04-17T09:31:26.270Z,37.93
2023-04-17T09:33:59.589Z,37.56
2023-04-17T09:36:31.614Z,37.88
2023-04-17T09:39:01.116Z,38.28
2023-04-17T09:41:31.811Z,38.22
2023-04-17T09:44:05.357Z,37.96
2023-04-17T09:46:39.331Z,37.76
2023-04-17T09:49:15.196Z,37.91
2023-04-17T09:51:45.007Z,37.90
2023-04-17T09:54:15.383Z,38.40
2023-04-17T09:56:44.658Z,38.42
2023-04-17T09:59:13.495Z,38.22
2023-04-17T10:01:42.365Z,38.06
2023-04-17T10:04:11.934Z,38.07
2023-04-17T10:06:41.688Z,38.14
2023-04-17T10:09:11.560Z,38.62
2023-04-17T10:11:43.493Z,37.74
2023-04-17T10:14:16.796Z,37.82
2023-04-17T10:16:47.219Z,37.62
2023-04-17T10:19:35.681Z,37.62
2023-04-17T10:22:41.115Z,37.53
2023-04-17T10:25:29.887Z,37.77
2023-04-17T10:28:02.075Z,37.46
2023-04-17T10:30:54.483Z,37.23
2023-04-17T10:33:27.480Z,36.56
2023-04-17T10:35:56.157Z,36.88
2023-04-17T10:38:36.743Z,37.06
2023-04-17T10:41:11.351Z,36.70
2023-04-17T10:43:45.971Z,36.33
2023-04-17T10:46:15.611Z,35.87
2023-04-17T10:48:49.835Z,35.47
2023-04-17T10:51:44.029Z,35.29
2023-04-17T10:54:15.686Z,34.95
2023-04-17T10:56:48.376Z,34.32
2023-04-17T10:59:18.918Z,33.93
2023-04-17T11:02:04.622Z,33.88
2023-04-17T11:04:34.665Z,33.20
2023-04-17T11:07:03.297Z,31.79
2023-04-17T11:09:31.718Z,31.29
2023-04-17T11:12:02.934Z,30.74
2023-04-17T11:14:32.383Z,31.05
2023-04-17T11:17:02.210Z,30.81
2023-04-17T11:19:30.904Z,30.27
2023-04-17T11:22:01.480Z,29.70
2023-04-17T11:24:32.308Z,29.76
2023-04-17T11:27:03.413Z,29.69
2023-04-17T11:29:31.973Z,28.10
2023-04-17T11:32:01.300Z,27.50
2023-04-17T11:34:30.342Z,28.33
2023-04-17T11:37:00.862Z,28.16
2023-04-17T11:39:32.571Z,28.30
2023-04-17T11:42:03.883Z,26.85
2023-04-17T11:44:32.334Z,26.92
2023-04-17T11:47:00.861Z,25.81
2023-04-17T11:49:30.915Z,26.69
2023-04-17T11:52:02.950Z,26.09
2023-04-17T11:54:32.980Z,25.08
2023-04-17T11:57:05.139Z,24.21
2023-04-17T11:59:34.999Z,24.34
2023-04-17T12:02:04.258Z,24.04
2023-04-17T12:04:34.897Z,23.87
2023-04-17T12:07:05.023Z,23.98
2023-04-17T12:09:34.053Z,23.92
2023-04-17T12:12:07.170Z,23.87
2023-04-17T12:14:35.891Z,23.77
2023-04-17T12:17:04.275Z,23.60
2023-04-17T12:19:33.788Z,23.65
2023-04-17T12:22:02.184Z,23.69
2023-04-17T12:24:30.657Z,22.89
2023-04-17T12:27:01.877Z,22.96
2023-04-17T12:29:43.178Z,23.23
2023-04-17T12:32:12.983Z,21.39
2023-04-17T12:34:41.740Z,22.08
2023-04-17T12:37:10.197Z,22.52
2023-04-17T12:39:38.543Z,21.45
2023-04-17T12:42:06.997Z,21.64
2023-04-17T12:44:36.735Z,22.25
2023-04-17T12:47:05.215Z,21.59
2023-04-17T12:49:33.637Z,21.68
2023-04-17T12:52:03.693Z,21.88
2023-04-17T12:54:33.061Z,21.44
2023-04-17T12:57:02.820Z,21.09
2023-04-17T12:59:31.256Z,21.55
2023-04-17T13:02:01.060Z,21.08
2023-04-17T13:04:29.604Z,20.42
2023-04-17T13:06:58.124Z,20.01
2023-04-17T13:09:26.502Z,19.80
2023-04-17T13:11:54.863Z,20.26
2023-04-17T13:14:23.325Z,20.16
2023-04-17T13:16:51.813Z,21.20
2023-04-17T13:19:21.630Z,21.99
2023-04-17T13:21:52.058Z,22.72
2023-04-17T13:24:20.498Z,23.53
2023-04-17T13:26:48.893Z,23.78
2023-04-17T13:29:19.460Z,23.83
2023-04-17T13:31:48.602Z,24.14
2023-04-17T13:34:17.208Z,24.64
2023-04-17T13:36:47.107Z,24.85
2023-04-17T13:39:15.730Z,25.21
2023-04-17T13:41:44.175Z,25.96
2023-04-17T13:44:13.675Z,25.98
2023-04-17T13:46:42.370Z,26.46
2023-04-17T13:49:10.929Z,26.14
2023-04-17T13:51:39.528Z,25.81
2023-04-17T13:54:09.982Z,25.58
2023-04-17T13:56:38.774Z,24.75
2023-04-17T13:59:07.385Z,24.13
2023-04-17T14:01:36.052Z,23.72
2023-04-17T14:04:04.798Z,23.70
2023-04-17T14:06:34.785Z,23.08
2023-04-17T14:09:03.264Z,23.51
2023-04-17T14:11:33.077Z,23.71
2023-04-17T14:14:01.667Z,23.55
2023-04-17T14:16:30.342Z,23.87
2023-04-17T14:19:06.388Z,23.56
2023-04-17T14:21:41.747Z,23.24
2023-04-17T14:24:10.753Z,23.08
2023-04-17T14:26:41.311Z,23.52
2023-04-17T14:29:10.849Z,24.67
2023-04-17T14:31:39.573Z,25.66
2023-04-17T14:34:08.547Z,26.36
2023-04-17T14:36:37.069Z,27.03
2023-04-17T14:39:05.497Z,27.55
2023-04-17T14:41:34.897Z,26.96
2023-04-17T14:44:04.968Z,26.61
2023-04-17T14:46:33.506Z,26.54
2023-04-17T14:49:01.979Z,25.91
2023-04-17T14:51:30.863Z,26.28
2023-04-17T14:53:59.453Z,26.68
2023-04-17T14:56:27.936Z,26.78
2023-04-17T14:58:56.337Z,27.42
2023-04-17T15:01:26.173Z,28.33
2023-04-17T15:03:54.948Z,28.43
2023-04-17T15:06:23.550Z,29.28
2023-04-17T15:08:52.009Z,29.50
2023-04-17T15:11:21.053Z,29.58
2023-04-17T15:13:49.552Z,29.80
2023-04-17T15:16:18.088Z,30.05
2023-04-17T15:18:48.084Z,30.38
2023-04-17T15:21:17.483Z,30.52
2023-04-17T15:23:46.076Z,31.10
2023-04-17T15:26:14.992Z,31.20
2023-04-17T15:28:43.438Z,31.89
2023-04-17T15:31:11.836Z,31.98
2023-04-17T15:33:40.621Z,32.35
2023-04-17T15:36:10.482Z,33.19
2023-04-17T15:38:38.904Z,32.85
2023-04-17T15:41:08.756Z,33.05
2023-04-17T15:43:38.877Z,33.33
2023-04-17T15:46:07.820Z,33.21
2023-04-17T15:48:36.414Z,33.13
2023-04-17T15:51:05.074Z,33.27
2023-04-17T15:53:34.971Z,33.46
2023-04-17T15:56:03.416Z,33.67
2023-04-17T15:58:31.818Z,33.73
2023-04-17T16:01:00.255Z,33.52
2023-04-17T16:03:28.814Z,33.81
2023-04-17T16:05:57.284Z,33.85
2023-04-17T16:08:25.760Z,33.91
2023-04-17T16:10:55.536Z,33.94
2023-04-17T16:13:23.979Z,34.42
2023-04-17T16:15:52.396Z,34.59
2023-04-17T16:18:20.895Z,34.75
2023-04-17T16:20:49.349Z,35.25
2023-04-17T16:23:18.061Z,35.42
2023-04-17T16:25:46.557Z,35.41
2023-04-17T16:28:16.388Z,35.64
2023-04-17T16:30:44.872Z,35.74
2023-04-17T16:33:13.351Z,36.11
2023-04-17T16:35:41.950Z,35.91
2023-04-17T16:38:10.470Z,35.75
2023-04-17T16:40:39.012Z,35.61
2023-04-17T16:43:07.707Z,35.81
2023-04-17T16:45:38.268Z,36.22
2023-04-17T16:48:09.224Z,36.31
2023-04-17T16:50:37.932Z,36.31
2023-04-17T16:53:06.386Z,36.75
2023-04-17T16:55:36.998Z,36.73
2023-04-17T16:58:05.532Z,36.78
2023-04-17T17:00:33.950Z,36.96
2023-04-17T17:03:04.047Z,37.54
2023-04-17T17:05:32.670Z,37.22
2023-04-17T17:08:01.539Z,37.28
2023-04-17T17:10:30.029Z,37.29
2023-04-17T17:12:58.459Z,37.12
2023-04-17T17:15:26.833Z,37.49
2023-04-17T17:17:55.355Z,37.46
2023-04-17T17:20:25.632Z,37.56
2023-04-17T17:22:54.124Z,37.52
2023-04-17T17:25:23.103Z,37.82
2023-04-17T17:27:51.763Z,37.81
2023-04-17T17:30:20.461Z,37.86
2023-04-17T17:32:48.962Z,38.03
2023-04-17T17:35:18.092Z,37.97
2023-04-17T17:37:48.014Z,38.38
2023-04-17T17:40:17.722Z,38.50
2023-04-17T17:42:46.771Z,38.22
2023-04-17T17:45:15.872Z,38.28
2023-04-17T17:47:44.411Z,38.16
2023-04-17T17:50:13.649Z,37.75
2023-04-17T17:52:42.765Z,37.47
2023-04-17T17:55:16.978Z,37.75
2023-04-17T17:57:49.310Z,37.57
2023-04-17T18:00:18.906Z,37.33
2023-04-17T18:02:48.417Z,37.47
2023-04-17T18:05:17.828Z,37.39
2023-04-17T18:07:46.266Z,37.29
2023-04-17T18:10:18.570Z,37.38
2023-04-17T18:12:47.521Z,37.43
2023-04-17T18:15:17.623Z,37.41
2023-04-17T18:17:46.756Z,37.67
2023-04-17T18:20:16.883Z,37.71
2023-04-17T18:22:46.101Z,37.45
2023-04-17T18:25:17.060Z,37.59
2023-04-17T18:27:50.516Z,37.67
2023-04-17T18:30:19.689Z,37.54
2023-04-17T18:32:48.919Z,37.48
2023-04-17T18:35:19.678Z,37.69
2023-04-17T18:37:48.341Z,37.67
2023-04-17T18:40:21.881Z,37.63
2023-04-17T18:42:51.164Z,37.73
2023-04-17T18:45:22.582Z,37.76
2023-04-17T18:47:51.600Z,37.81
2023-04-17T18:50:20.785Z,38.12
2023-04-17T18:52:51.278Z,38.07
2023-04-17T18:55:21.732Z,38.21
2023-04-17T18:57:50.998Z,38.24
2023-04-17T19:00:21.653Z,38.32
2023-04-17T19:02:50.425Z,38.44
2023-04-17T19:05:21.993Z,38.60
2023-04-17T19:07:51.597Z,38.58
2023-04-17T19:10:22.529Z,38.78
2023-04-17T19:12:52.140Z,38.82
2023-04-17T19:15:22.151Z,38.92
2023-04-17T19:17:52.890Z,39.19
2023-04-17T19:20:23.757Z,39.30
2023-04-17T19:22:53.279Z,39.57
2023-04-17T19:25:24.353Z,39.86
2023-04-17T19:27:54.037Z,40.10
2023-04-17T19:30:23.339Z,40.12
2023-04-17T19:32:52.494Z,40.35
2023-04-17T19:35:21.806Z,40.32
2023-04-17T19:37:55.388Z,40.23
2023-04-17T19:40:26.670Z,40.55
2023-04-17T19:43:01.460Z,40.58
2023-04-17T19:45:34.057Z,40.66
2023-04-17T19:48:04.784Z,40.72
2023-04-17T19:50:34.237Z,40.97
2023-04-17T19:53:05.368Z,40.84
2023-04-17T19:55:36.024Z,41.02
2023-04-17T19:58:05.357Z,40.99
2023-04-17T20:00:35.073Z,41.11
2023-04-17T20:03:03.753Z,41.15
2023-04-17T20:05:32.590Z,41.40
2023-04-17T20:08:02.943Z,41.15
2023-04-17T20:10:31.792Z,41.47
2023-04-17T20:13:02.510Z,41.45
2023-04-17T20:15:32.538Z,41.34
2023-04-17T20:18:08.851Z,41.64
2023-04-17T20:20:39.722Z,41.51
2023-04-17T20:23:08.238Z,41.54
2023-04-17T20:25:37.074Z,41.38
2023-04-17T20:28:07.613Z,41.63
2023-04-17T20:30:36.010Z,41.66
2023-04-17T20:33:05.614Z,41.81
2023-04-17T20:35:35.206Z,41.70
2023-04-17T20:38:03.845Z,41.68
2023-04-17T20:40:33.038Z,41.79
2023-04-17T20:43:01.736Z,42.12
2023-04-17T20:45:32.126Z,41.88
2023-04-17T20:48:02.445Z,41.89
2023-04-17T20:50:31.564Z,41.96
2023-04-17T20:52:59.988Z,42.03
2023-04-17T20:55:28.787Z,41.94
2023-04-17T20:57:57.235Z,42.04
2023-04-17T21:00:26.190Z,42.04
2023-04-17T21:02:56.018Z,42.20
2023-04-17T21:05:24.544Z,42.09
2023-04-17T21:07:53.062Z,42.24
2023-04-17T21:10:21.821Z,42.24
2023-04-17T21:12:50.363Z,42.22
2023-04-17T21:15:18.964Z,42.15
2023-04-17T21:17:48.018Z,42.30
2023-04-17T21:20:17.811Z,42.28
2023-04-17T21:22:46.217Z,42.38
2023-04-17T21:25:14.575Z,42.33
2023-04-17T21:27:43.862Z,42.34
2023-04-17T21:30:12.846Z,42.34
2023-04-17T21:32:42.308Z,42.44
2023-04-17T21:35:11.424Z,42.39
2023-04-17T21:37:41.151Z,42.42
2023-04-17T21:40:11.012Z,42.49
2023-04-17T21:42:39.552Z,42.46
2023-04-17T21:45:09.563Z,42.54
2023-04-17T21:47:38.131Z,42.51
2023-04-17T21:50:08.522Z,42.34
2023-04-17T21:52:36.908Z,42.31
2023-04-17T21:55:08.451Z,42.43
2023-04-17T21:57:36.982Z,42.42
2023-04-17T22:00:09.475Z,42.22
2023-04-17T22:02:37.839Z,42.20
2023-04-17T22:05:07.416Z,42.26
2023-04-17T22:07:44.027Z,42.12
2023-04-17T22:10:24.530Z,42.26
2023-04-17T22:12:52.958Z,42.17
2023-04-17T22:15:21.476Z,42.21
2023-04-17T22:17:49.864Z,42.12
2023-04-17T22:20:18.250Z,42.10
2023-04-17T22:22:47.952Z,42.21
2023-04-17T22:25:17.125Z,42.23
2023-04-17T22:27:46.797Z,42.20
2023-04-17T22:30:15.242Z,42.12
2023-04-17T22:32:43.695Z,42.26
2023-04-17T22:35:12.141Z,42.19
2023-04-17T22:37:40.411Z,42.10
2023-04-17T22:40:10.632Z,42.23
2023-04-17T22:42:38.938Z,42.28
2023-04-17T22:45:10.056Z,42.12
2023-04-17T22:47:38.495Z,42.30
2023-04-17T22:50:10.444Z,42.30
2023-04-17T22:52:38.792Z,42.38
2023-04-17T22:55:08.193Z,42.43
2023-04-17T22:57:36.670Z,42.48
2023-04-17T23:00:08.931Z,42.49
2023-04-17T23:02:38.919Z,42.43
2023-04-17T23:05:08.964Z,42.59
2023-04-17T23:07:37.416Z,42.50
2023-04-17T23:10:06.982Z,42.39
2023-04-17T23:12:35.395Z,42.51
2023-04-17T23:15:04.063Z,42.48
2023-04-17T23:17:33.185Z,42.43
2023-04-17T23:20:03.932Z,42.56
2023-04-17T23:22:32.319Z,42.69
2023-04-17T23:25:00.722Z,42.66
2023-04-17T23:27:29.418Z,42.76
2023-04-17T23:29:59.804Z,42.73
2023-04-17T23:32:28.336Z,42.72
2023-04-17T23:34:56.706Z,42.66
2023-04-17T23:37:26.679Z,42.56
2023-04-17T23:39:54.990Z,42.66
2023-04-17T23:42:23.360Z,42.80
2023-04-17T23:44:52.092Z,42.71
2023-04-17T23:47:20.565Z,42.90
2023-04-17T23:49:48.897Z,42.76
2023-04-17T23:52:19.000Z,42.85
2023-04-17T23:54:48.796Z,43.10
2023-04-17T23:57:18.334Z,43.06
2023-04-17T23:59:46.656Z,42.87
